Time;durP1;ratioP1;P1;durP2;ratioP2;P2;SDS_P1;SDS_P2;PMS_P1;PMS_P2;Temp;Humidity;BMP_temperature;BMP_pressure;BME280_temperature;BME280_humidity;BME280_pressure;Samples;Min_cycle;Max_cycle;Signal;HPM_P1;HPM_P2
2021/04/28 00:01:31;;;;;;;4.30;1.85;;;;;;;6.18;47.50;100732.28;6246241;28;20064;-74
2021/04/28 00:04:32;;;;;;;3.65;1.58;;;;;;;6.12;49.84;100740.28;6245942;28;20073;-73
2021/04/28 00:07:33;;;;;;;3.33;1.35;;;;;;;6.07;48.67;100734.38;6246383;28;20076;-73
2021/04/28 00:10:37;;;;;;;4.07;1.50;;;;;;;6.06;48.14;100730.94;6246285;28;20045;-74
2021/04/28 00:13:39;;;;;;;5.55;1.77;;;;;;;5.91;51.40;100725.38;6250600;28;20053;-74
2021/04/28 00:16:39;;;;;;;2.13;1.48;;;;;;;5.85;51.35;100727.25;6250700;28;20099;-74
2021/04/28 00:19:40;;;;;;;3.72;1.80;;;;;;;5.85;50.34;100719.44;6250689;28;20049;-74
2021/04/28 00:22:41;;;;;;;2.63;1.60;;;;;;;5.76;51.69;100722.34;6250664;28;20045;-74
2021/04/28 00:25:43;;;;;;;5.55;2.00;;;;;;;5.70;48.56;100712.16;6250420;28;20061;-73
2021/04/28 00:28:45;;;;;;;4.50;1.85;;;;;;;5.62;48.90;100708.94;6250304;28;20562;-74
2021/04/28 00:31:46;;;;;;;5.07;2.13;;;;;;;5.63;51.08;100704.56;6250463;28;20076;-74
2021/04/28 00:34:47;;;;;;;7.55;2.10;;;;;;;5.66;51.09;100707.94;6250037;28;20128;-74
2021/04/28 00:37:50;;;;;;;2.72;1.40;;;;;;;5.68;50.98;100708.75;6250170;28;20060;-74
2021/04/28 00:40:51;;;;;;;3.80;1.50;;;;;;;5.65;49.70;100703.63;6250231;28;20057;-74
2021/04/28 00:43:53;;;;;;;4.65;1.60;;;;;;;5.56;51.30;100699.59;6249900;28;20053;-74
2021/04/28 00:46:54;;;;;;;6.88;1.70;;;;;;;5.54;51.09;100696.19;6250249;28;20501;-74
2021/04/28 00:49:55;;;;;;;8.73;2.13;;;;;;;5.52;51.75;100695.38;6249456;28;20140;-73
2021/04/28 00:52:56;;;;;;;2.70;1.30;;;;;;;5.53;51.24;100688.41;6249907;28;20052;-74
2021/04/28 00:55:58;;;;;;;3.28;1.65;;;;;;;5.53;50.02;100689.25;6249740;28;20103;-74
2021/04/28 00:59:01;;;;;;;3.20;1.60;;;;;;;5.39;52.07;100694.06;6250011;28;20053;-74
2021/04/28 01:02:02;;;;;;;4.72;1.90;;;;;;;5.41;50.69;100687.06;6249584;28;20501;-74
2021/04/28 01:05:05;;;;;;;3.17;1.65;;;;;;;5.38;50.07;100684.56;6249563;28;20057;-74
2021/04/28 01:08:06;;;;;;;5.47;1.73;;;;;;;5.27;50.91;100681.47;6249710;28;20579;-74
2021/04/28 01:11:07;;;;;;;3.75;1.75;;;;;;;5.26;49.93;100679.72;6249644;28;20057;-74
2021/04/28 01:14:10;;;;;;;5.63;2.10;;;;;;;5.24;50.07;100677.19;6249295;28;20537;-73
2021/04/28 01:17:11;;;;;;;2.47;1.80;;;;;;;5.27;51.04;100671.88;6249382;28;20050;-74
2021/04/28 01:20:14;;;;;;;3.53;1.38;;;;;;;5.15;49.88;100666.22;6249398;28;20045;-74
2021/04/28 01:23:17;;;;;;;3.85;1.73;;;;;;;5.09;50.60;100667.28;6248448;28;20072;-73
2021/04/28 01:26:21;;;;;;;3.75;1.77;;;;;;;5.16;50.26;100667.91;6249437;28;20050;-74
2021/04/28 01:29:24;;;;;;;4.30;1.70;;;;;;;4.99;51.06;100660.63;6248103;28;20075;-74
2021/04/28 01:32:25;;;;;;;3.42;2.00;;;;;;;4.99;51.43;100660.63;6248691;28;20119;-73
2021/04/28 01:35:27;;;;;;;4.95;1.88;;;;;;;5.01;51.70;100659.69;6248558;28;20495;-74
2021/04/28 01:38:32;;;;;;;6.03;1.95;;;;;;;4.96;52.31;100658.16;6248783;28;20107;-74
2021/04/28 01:41:37;;;;;;;3.90;2.08;;;;;;;4.94;52.26;100657.31;6248640;28;20053;-74
2021/04/28 01:44:39;;;;;;;3.85;2.00;;;;;;;4.93;52.08;100651.25;6248523;28;20084;-74
2021/04/28 01:47:41;;;;;;;6.28;1.90;;;;;;;4.91;52.63;100658.28;6248575;28;20045;-74
2021/04/28 01:50:42;;;;;;;7.60;1.70;;;;;;;4.89;52.68;100654.88;6271793;22;20042;-74
2021/04/28 01:53:44;;;;;;;4.80;1.80;;;;;;;4.88;53.45;100653.16;6248148;28;20057;-74
2021/04/28 01:56:48;;;;;;;5.22;1.60;;;;;;;4.81;52.71;100654.25;6270315;28;20497;-73
2021/04/28 01:59:49;;;;;;;7.95;2.42;;;;;;;4.76;54.53;100649.19;6261787;28;20470;-77
2021/04/28 02:02:50;;;;;;;2.67;1.50;;;;;;;4.75;53.68;100646.63;6248289;28;20049;-74
2021/04/28 02:05:52;;;;;;;4.68;2.10;;;;;;;4.74;53.93;100643.19;6248407;28;20438;-74
2021/04/28 02:08:54;;;;;;;8.48;3.55;;;;;;;4.74;53.21;100643.19;6248445;28;20053;-74
2021/04/28 02:11:55;;;;;;;4.20;1.92;;;;;;;4.65;53.36;100640.88;6248635;28;20076;-76
2021/04/28 02:14:57;;;;;;;5.82;2.33;;;;;;;4.63;53.84;100642.66;6248087;28;20049;-74
2021/04/28 02:18:01;;;;;;;9.52;2.00;;;;;;;4.66;54.28;100644.31;6248836;28;20076;-75
2021/04/28 02:21:04;;;;;;;3.47;1.77;;;;;;;4.67;53.80;100630.41;6248350;28;20104;-76
2021/04/28 02:24:08;;;;;;;3.70;2.08;;;;;;;4.61;53.93;100630.59;6248368;28;20049;-76
2021/04/28 02:27:09;;;;;;;4.78;2.20;;;;;;;4.59;54.86;100628.06;6248447;28;20132;-76
2021/04/28 02:30:13;;;;;;;5.50;2.08;;;;;;;4.56;53.75;100630.75;6247865;28;20482;-76
2021/04/28 02:33:14;;;;;;;4.50;2.28;;;;;;;4.48;54.17;100630.97;6247357;28;20486;-76
2021/04/28 02:36:15;;;;;;;10.50;2.65;;;;;;;4.52;54.75;100634.31;6247760;28;20055;-75
2021/04/28 02:39:24;;;;;;;3.80;1.92;;;;;;;4.47;55.32;100625.81;6247674;28;20054;-74
2021/04/28 02:42:25;;;;;;;4.50;2.30;;;;;;;4.42;55.01;100623.34;6247673;28;20128;-76
2021/04/28 02:45:26;;;;;;;6.43;2.00;;;;;;;4.33;55.34;100619.28;6247682;28;20052;-75
2021/04/28 02:48:29;;;;;;;6.95;2.20;;;;;;;4.39;54.43;100623.44;6247739;28;20077;-76
2021/04/28 02:51:31;;;;;;;4.80;1.90;;;;;;;4.21;55.65;100616.16;6247924;28;20425;-76
2021/04/28 02:54:33;;;;;;;8.48;2.08;;;;;;;4.24;55.26;100608.28;6247241;28;20049;-75
2021/04/28 02:57:34;;;;;;;6.47;2.17;;;;;;;4.27;56.04;100614.25;6247650;28;20054;-76
2021/04/28 03:00:35;;;;;;;4.50;1.98;;;;;;;4.24;55.76;100610.88;6247496;28;20049;-75
2021/04/28 03:03:39;;;;;;;7.10;2.20;;;;;;;4.24;55.32;100610.88;6247082;28;20092;-76
2021/04/28 03:06:40;;;;;;;4.55;2.40;;;;;;;4.16;54.91;100611.09;6247138;28;20052;-76
2021/04/28 03:09:43;;;;;;;4.85;2.20;;;;;;;4.12;56.31;100611.25;6247019;28;20072;-76
2021/04/28 03:12:45;;;;;;;9.63;2.53;;;;;;;4.20;56.24;100609.28;6247397;28;20060;-76
2021/04/28 03:15:47;;;;;;;5.00;2.63;;;;;;;4.18;56.69;100609.31;6247114;28;20104;-76
2021/04/28 03:18:48;;;;;;;6.93;2.40;;;;;;;4.19;57.18;100607.56;6247388;28;20053;-75
2021/04/28 03:21:50;;;;;;;4.30;2.28;;;;;;;4.15;56.50;100603.34;6246997;28;20630;-76
2021/04/28 03:24:52;;;;;;;4.00;2.40;;;;;;;4.08;56.67;100607.88;6246742;28;20417;-76
2021/04/28 03:27:53;;;;;;;3.17;1.90;;;;;;;4.07;56.98;100608.78;6247382;28;20095;-75
2021/04/28 03:30:54;;;;;;;5.57;2.30;;;;;;;4.10;56.29;100602.66;6247253;28;20075;-76
2021/04/28 03:33:55;;;;;;;13.15;2.63;;;;;;;4.03;57.15;100605.41;6252226;28;20052;-75
2021/04/28 03:36:56;;;;;;;7.30;2.50;;;;;;;4.06;57.53;100607.91;6257356;28;20072;-76
2021/04/28 03:39:57;;;;;;;4.55;2.40;;;;;;;4.00;57.65;100605.50;6271407;28;20045;-76
2021/04/28 03:42:58;;;;;;;3.70;2.38;;;;;;;4.05;58.05;100611.44;6271534;28;20095;-76
2021/04/28 03:45:59;;;;;;;4.93;2.40;;;;;;;4.10;56.53;100600.91;6274253;28;20041;-75
2021/04/28 03:49:00;;;;;;;5.90;2.72;;;;;;;4.02;58.07;100603.69;6276350;28;20044;-76
2021/04/28 03:52:01;;;;;;;6.80;2.25;;;;;;;3.99;57.08;100603.78;6275961;28;20080;-76
2021/04/28 03:55:03;;;;;;;5.13;2.42;;;;;;;4.00;57.40;100597.72;6276036;28;20045;-76
2021/04/28 03:58:04;;;;;;;5.60;2.42;;;;;;;3.94;57.52;100597.84;6276501;28;20045;-76
2021/04/28 04:01:05;;;;;;;4.90;2.78;;;;;;;3.94;57.74;100602.22;6276053;28;20191;-76
2021/04/28 04:04:06;;;;;;;9.30;2.50;;;;;;;3.92;56.89;100599.66;6276152;28;20053;-76
2021/04/28 04:07:07;;;;;;;7.35;2.05;;;;;;;3.89;57.93;100601.50;6276251;28;20071;-76
2021/04/28 04:10:10;;;;;;;7.68;3.13;;;;;;;3.85;57.41;100602.47;6275885;28;20179;-75
2021/04/28 04:13:11;;;;;;;6.07;2.28;;;;;;;3.84;57.09;100604.22;6275967;28;20048;-76
2021/04/28 04:16:11;;;;;;;7.05;3.00;;;;;;;3.77;58.02;100598.34;6275845;28;20412;-76
2021/04/28 04:19:13;;;;;;;6.45;2.75;;;;;;;3.78;58.37;100594.00;6275751;28;20045;-75
2021/04/28 04:22:14;;;;;;;7.68;2.78;;;;;;;3.81;58.93;100599.97;6275713;28;20075;-76
2021/04/28 04:25:16;;;;;;;5.20;2.65;;;;;;;3.78;57.78;100601.81;6275983;28;20045;-76
2021/04/28 04:28:17;;;;;;;6.07;2.30;;;;;;;3.76;58.28;100604.44;6275618;28;20056;-76
2021/04/28 04:31:17;;;;;;;4.88;2.97;;;;;;;3.68;59.32;100608.13;6275774;28;20492;-76
2021/04/28 04:34:18;;;;;;;7.95;2.50;;;;;;;3.65;58.58;100605.63;6275361;28;20055;-76
2021/04/28 04:37:19;;;;;;;5.72;2.65;;;;;;;3.69;59.51;100604.66;6275642;28;20134;-75
2021/04/28 04:40:21;;;;;;;5.75;2.83;;;;;;;3.75;59.40;100612.28;6275184;28;20059;-76
2021/04/28 04:43:22;;;;;;;6.93;3.28;;;;;;;3.78;59.04;100612.19;6275062;28;20053;-75
2021/04/28 04:46:23;;;;;;;5.57;2.97;;;;;;;3.74;58.74;100610.56;6275479;28;20489;-75
2021/04/28 04:49:24;;;;;;;6.25;3.05;;;;;;;3.74;58.61;100603.63;6275169;28;20051;-75
2021/04/28 04:52:25;;;;;;;6.38;2.95;;;;;;;3.77;57.87;100600.97;6275031;28;20052;-76
2021/04/28 04:55:27;;;;;;;5.80;3.20;;;;;;;3.71;59.25;100603.69;6274584;28;20134;-76
2021/04/28 04:58:27;;;;;;;10.73;2.88;;;;;;;3.74;59.90;100601.03;6274490;28;20057;-76
2021/04/28 05:01:28;;;;;;;10.25;2.75;;;;;;;3.86;60.15;100604.16;6274982;28;20489;-76
2021/04/28 05:04:29;;;;;;;6.15;2.85;;;;;;;3.87;59.71;100604.16;6274865;28;20442;-76
2021/04/28 05:07:30;;;;;;;6.93;3.05;;;;;;;3.92;60.83;100596.22;6274963;28;20497;-76
2021/04/28 05:10:32;;;;;;;6.90;3.45;;;;;;;3.95;59.25;100591.78;6274731;28;20055;-75
2021/04/28 05:13:33;;;;;;;25.30;3.45;;;;;;;4.08;59.58;100593.13;6274520;28;20049;-75
2021/04/28 05:16:34;;;;;;;14.63;3.20;;;;;;;4.18;59.06;100600.66;6274312;28;20508;-75
2021/04/28 05:19:34;;;;;;;7.32;2.67;;;;;;;4.22;58.85;100591.84;6274658;28;20049;-75
2021/04/28 05:22:36;;;;;;;8.43;2.65;;;;;;;4.27;57.62;100602.97;6274345;28;20107;-75
2021/04/28 05:25:38;;;;;;;6.07;3.08;;;;;;;4.38;57.97;100590.50;6274486;28;20047;-75
2021/04/28 05:28:39;;;;;;;8.20;2.80;;;;;;;4.30;58.61;100593.34;6274272;28;20110;-75
2021/04/28 05:31:39;;;;;;;14.57;3.13;;;;;;;4.33;58.68;100600.22;6273915;28;20072;-75
2021/04/28 05:34:40;;;;;;;17.75;3.00;;;;;;;4.48;58.37;100593.69;6273521;28;20569;-75
2021/04/28 05:37:41;;;;;;;5.07;2.80;;;;;;;4.46;58.66;100593.75;6273530;28;20470;-74
2021/04/28 05:40:43;;;;;;;11.95;3.25;;;;;;;4.50;58.04;100600.56;6273437;28;20102;-75
2021/04/28 05:43:44;;;;;;;53.33;4.57;;;;;;;4.57;57.94;100599.44;6273077;28;20045;-75
2021/04/28 05:46:46;;;;;;;12.35;3.83;;;;;;;4.64;56.93;100592.31;6273590;28;20041;-75
2021/04/28 05:49:46;;;;;;;5.65;2.90;;;;;;;4.80;57.31;100585.72;6273183;28;20048;-75
2021/04/28 05:52:47;;;;;;;12.90;3.60;;;;;;;4.82;57.07;100588.28;6273617;28;20055;-75
2021/04/28 05:55:49;;;;;;;13.20;3.78;;;;;;;4.84;57.46;100583.88;6273093;28;20402;-75
2021/04/28 05:58:50;;;;;;;7.28;3.03;;;;;;;4.96;57.05;100580.88;6273360;28;20057;-75
2021/04/28 06:01:51;;;;;;;7.30;3.20;;;;;;;4.96;57.41;100582.63;6273065;28;20505;-75
2021/04/28 06:04:52;;;;;;;5.82;3.25;;;;;;;5.06;56.72;100584.03;6273137;28;20102;-75
2021/04/28 06:07:53;;;;;;;10.73;3.17;;;;;;;5.11;57.11;100576.06;6279079;28;20049;-75
2021/04/28 06:10:55;;;;;;;5.75;3.05;;;;;;;5.24;56.03;100574.75;6272974;28;20083;-75
2021/04/28 06:13:56;;;;;;;9.98;3.58;;;;;;;5.24;55.25;100582.56;6272637;28;20082;-74
2021/04/28 06:16:58;;;;;;;7.05;3.40;;;;;;;5.39;56.38;100574.19;6272545;28;20086;-75
2021/04/28 06:19:59;;;;;;;8.05;2.92;;;;;;;5.51;55.17;100567.72;6272468;28;20072;-75
2021/04/28 06:23:00;;;;;;;11.90;4.03;;;;;;;5.50;54.94;100568.63;6274772;28;20049;-75
2021/04/28 06:26:01;;;;;;;10.23;3.63;;;;;;;5.55;55.51;100569.31;6286306;28;20492;-75
2021/04/28 06:29:03;;;;;;;7.25;3.45;;;;;;;5.65;55.87;100570.69;6286275;28;20044;-75
2021/04/28 06:32:04;;;;;;;9.18;2.92;;;;;;;5.77;55.01;100574.63;6288912;28;20056;-75
2021/04/28 06:35:07;;;;;;;7.35;3.67;;;;;;;5.73;55.37;100573.88;6268383;28;20044;-76
2021/04/28 06:38:09;;;;;;;9.07;3.28;;;;;;;5.95;54.45;100568.75;6277361;28;20079;-76
2021/04/28 06:41:10;;;;;;;7.53;3.08;;;;;;;5.85;54.65;100564.72;6275200;28;20056;-76
2021/04/28 06:44:11;;;;;;;6.80;3.40;;;;;;;5.97;53.92;100563.47;6272376;28;20049;-76
2021/04/28 06:47:12;;;;;;;6.50;3.28;;;;;;;5.97;54.47;100566.09;6272057;28;20610;-77
2021/04/28 06:50:13;;;;;;;7.30;3.60;;;;;;;6.05;54.50;100554.47;6267337;28;20057;-76
2021/04/28 06:53:14;;;;;;;7.78;3.33;;;;;;;6.13;54.70;100563.72;6247204;28;20060;-76
2021/04/28 06:56:16;;;;;;;6.60;3.33;;;;;;;6.19;53.84;100553.94;6247064;28;20045;-76
2021/04/28 06:59:18;;;;;;;7.35;3.60;;;;;;;6.24;53.93;100543.31;6247443;28;20053;-76
2021/04/28 07:02:19;;;;;;;7.32;3.78;;;;;;;6.34;53.97;100547.25;6247021;28;20497;-77
2021/04/28 07:05:21;;;;;;;6.00;3.15;;;;;;;6.37;53.56;100541.94;6247000;28;20171;-76
2021/04/28 07:08:21;;;;;;;10.82;4.38;;;;;;;6.45;53.03;100544.22;6260137;28;20049;-76
2021/04/28 07:11:23;;;;;;;8.05;3.70;;;;;;;6.53;53.99;100536.94;6272162;28;20425;-76
2021/04/28 07:14:24;;;;;;;10.15;3.83;;;;;;;6.65;53.00;100536.47;6272209;28;20493;-76
2021/04/28 07:17:25;;;;;;;11.50;4.07;;;;;;;6.75;52.41;100534.31;6272100;28;20045;-76
2021/04/28 07:20:26;;;;;;;8.43;3.85;;;;;;;6.86;53.30;100532.97;6273560;28;20071;-76
2021/04/28 07:23:27;;;;;;;7.15;3.60;;;;;;;6.86;52.18;100537.34;6274319;28;20500;-76
2021/04/28 07:26:29;;;;;;;8.60;3.83;;;;;;;6.96;52.19;100527.38;6273670;28;20168;-76
2021/04/28 07:29:30;;;;;;;38.97;5.28;;;;;;;7.01;52.96;100523.63;6274022;28;20057;-76
2021/04/28 07:32:31;;;;;;;8.90;3.50;;;;;;;7.19;51.91;100524.63;6285714;28;20055;-76
2021/04/28 07:35:31;;;;;;;16.17;4.25;;;;;;;7.26;51.98;100530.41;6297305;28;20147;-77
2021/04/28 07:38:33;;;;;;;8.50;3.95;;;;;;;7.34;52.28;100526.56;6276823;28;20049;-76
2021/04/28 07:41:35;;;;;;;13.40;3.92;;;;;;;7.53;51.25;100524.00;6254895;28;20049;-77
2021/04/28 07:44:36;;;;;;;9.57;3.65;;;;;;;7.55;52.49;100526.56;6273171;28;20045;-77
2021/04/28 07:47:37;;;;;;;6.75;3.60;;;;;;;7.60;51.46;100529.81;6278398;28;20053;-78
2021/04/28 07:50:39;;;;;;;14.65;4.50;;;;;;;7.61;52.08;100528.88;6302010;22;20305;-73
2021/04/28 07:53:40;;;;;;;14.45;4.03;;;;;;;7.82;50.67;100522.69;6293774;28;20063;-73
2021/04/28 07:56:42;;;;;;;8.27;4.25;;;;;;;7.94;51.13;100520.41;6294588;28;20484;-74
2021/04/28 07:59:44;;;;;;;8.60;3.92;;;;;;;7.85;51.95;100511.22;6295846;28;20063;-73
2021/04/28 08:02:45;;;;;;;15.70;3.95;;;;;;;8.02;50.82;100515.69;6295630;28;20044;-73
2021/04/28 08:05:46;;;;;;;9.48;4.10;;;;;;;8.00;52.25;100513.16;6295461;28;20398;-76
2021/04/28 08:08:48;;;;;;;15.52;4.47;;;;;;;7.94;51.57;100512.56;6295705;28;20603;-74
2021/04/28 08:11:49;;;;;;;10.27;4.13;;;;;;;7.98;51.91;100508.91;6295148;28;20393;-73
2021/04/28 08:14:50;;;;;;;6.47;3.72;;;;;;;8.10;52.28;100517.03;6295447;28;20497;-76
2021/04/28 08:17:51;;;;;;;8.48;4.43;;;;;;;8.17;51.07;100509.72;6295480;28;20047;-75
2021/04/28 08:20:52;;;;;;;11.10;4.60;;;;;;;8.27;51.10;100511.00;6295595;28;20550;-76
2021/04/28 08:23:53;;;;;;;10.35;4.40;;;;;;;8.37;49.97;100514.91;6295203;28;20048;-75
2021/04/28 08:26:55;;;;;;;25.00;4.53;;;;;;;8.59;50.33;100517.34;6295541;28;20040;-76
2021/04/28 08:29:56;;;;;;;7.13;3.75;;;;;;;8.64;49.91;100523.22;6294088;28;20055;-75
2021/04/28 08:32:57;;;;;;;20.85;4.55;;;;;;;8.78;50.44;100519.06;6297318;28;20044;-76
2021/04/28 08:35:58;;;;;;;13.32;4.90;;;;;;;8.80;50.83;100520.66;6299797;28;20075;-77
2021/04/28 08:38:59;;;;;;;16.77;5.15;;;;;;;8.85;50.61;100512.56;6299680;28;20056;-78
2021/04/28 08:42:02;;;;;;;18.58;4.35;;;;;;;8.95;50.57;100505.97;6291339;28;20045;-76
2021/04/28 08:45:05;;;;;;;9.18;4.32;;;;;;;9.03;50.29;100502.94;6273083;28;20107;-76
2021/04/28 08:48:06;;;;;;;14.63;5.13;;;;;;;9.25;49.52;100506.16;6296316;28;20471;-76
2021/04/28 08:51:07;;;;;;;11.40;4.40;;;;;;;9.33;48.48;100503.16;6299301;28;20048;-75
2021/04/28 08:54:09;;;;;;;7.80;4.32;;;;;;;9.46;48.78;100506.00;6299440;28;20181;-75
2021/04/28 08:57:11;;;;;;;11.98;4.78;;;;;;;9.56;48.16;100501.94;6298509;28;20046;-77
2021/04/28 09:00:13;;;;;;;10.32;4.72;;;;;;;9.63;48.73;100498.91;6299017;28;20056;-78
2021/04/28 09:03:17;;;;;;;13.32;5.07;;;;;;;9.71;47.81;100493.25;6298874;28;20049;-78
2021/04/28 09:06:28;;;;;;;12.10;5.03;;;;;;;9.80;48.21;100492.75;6299037;28;20413;-75
2021/04/28 09:09:29;;;;;;;12.77;5.03;;;;;;;10.07;48.07;100485.13;6298717;28;20052;-74
2021/04/28 09:12:31;;;;;;;8.48;4.93;;;;;;;10.10;47.06;100484.13;6297900;28;20053;-75
2021/04/28 09:15:37;;;;;;;25.42;6.38;;;;;;;10.14;46.47;100481.25;6298791;28;20040;-74
2021/04/28 09:18:39;;;;;;;21.20;5.13;;;;;;;10.18;46.93;100475.84;6298445;28;20052;-74
2021/04/28 09:21:47;;;;;;;17.35;5.05;;;;;;;10.21;47.02;100480.91;6298636;28;20049;-75
2021/04/28 09:24:49;;;;;;;12.27;5.63;;;;;;;10.35;46.67;100473.97;6298210;28;20048;-74
2021/04/28 09:27:51;;;;;;;11.98;5.93;;;;;;;10.38;47.00;100481.66;6298740;28;20094;-73
2021/04/28 09:31:11;;;;;;;16.05;5.13;;;;;;;10.58;47.20;100475.28;6294874;28;20052;-77
2021/04/28 09:34:12;;;;;;;;;;;;;;;10.70;46.88;100478.13;6291308;28;20070;-74
2021/04/28 09:37:14;;;;;;;15.65;6.03;;;;;;;10.85;46.22;100467.56;6273349;28;19928;-76
2021/04/28 09:40:15;;;;;;;22.48;6.78;;;;;;;10.92;45.72;100470.69;6277476;28;20412;-76
2021/04/28 09:43:17;;;;;;;11.52;5.47;;;;;;;10.94;44.83;100463.53;6272847;28;20052;-76
2021/04/28 09:46:18;;;;;;;13.27;5.45;;;;;;;11.09;44.06;100465.28;6273266;28;20570;-74
2021/04/28 09:49:19;;;;;;;11.35;6.00;;;;;;;11.20;44.09;100456.72;6292922;28;20056;-74
2021/04/28 09:52:37;;;;;;;16.58;6.68;;;;;;;11.29;42.27;100448.28;6297919;28;20048;-75
2021/04/28 09:55:45;;;;;;;14.77;5.35;;;;;;;11.23;44.75;100453.91;6296309;28;20083;-75
2021/04/28 09:58:48;;;;;;;10.75;5.97;;;;;;;11.49;43.86;100448.81;6297428;28;20049;-74
2021/04/28 10:01:57;;;;;;;27.55;6.85;;;;;;;11.71;42.91;100446.56;6297370;28;20056;-74
2021/04/28 10:05:16;;;;;;;13.23;6.95;;;;;;;11.87;42.96;100444.69;6288876;28;20049;-74
2021/04/28 10:08:22;;;;;;;21.48;6.95;;;;;;;11.99;43.08;100439.56;6288392;28;20539;-74
2021/04/28 10:11:23;;;;;;;10.10;6.13;;;;;;;12.15;42.22;100438.50;6297549;28;20205;-73
2021/04/28 10:14:26;;;;;;;12.38;6.55;;;;;;;12.22;42.43;100433.69;6295242;28;20048;-74
2021/04/28 10:17:28;;;;;;;12.32;6.50;;;;;;;12.29;40.82;100426.22;6297269;28;20083;-74
2021/04/28 10:20:31;;;;;;;21.45;9.18;;;;;;;12.33;40.89;100427.69;6297242;28;20135;-74
2021/04/28 10:23:34;;;;;;;72.10;10.02;;;;;;;12.52;42.74;100428.16;6296749;28;20135;-74
2021/04/28 10:26:35;;;;;;;14.68;6.55;;;;;;;12.67;41.18;100426.28;6296919;28;20102;-74
2021/04/28 10:29:38;;;;;;;63.78;10.20;;;;;;;12.80;41.29;100418.41;6296667;28;20060;-72
2021/04/28 10:32:41;;;;;;;14.77;7.05;;;;;;;12.84;40.32;100422.53;6293600;28;20048;-74
2021/04/28 10:35:42;;;;;;;18.80;7.47;;;;;;;12.87;43.62;100415.25;6294972;28;20105;-74
2021/04/28 10:38:43;;;;;;;16.27;7.47;;;;;;;13.18;42.63;100418.41;6296160;28;20424;-74
2021/04/28 10:41:44;;;;;;;22.23;7.97;;;;;;;13.40;39.44;100404.59;6296461;28;20048;-73
2021/04/28 10:44:46;;;;;;;28.70;8.65;;;;;;;13.55;39.98;100403.50;6296615;28;20133;-74
2021/04/28 10:47:48;;;;;;;30.88;7.93;;;;;;;13.58;41.92;100392.75;6296582;28;20049;-74
2021/04/28 10:50:49;;;;;;;17.23;7.90;;;;;;;13.75;40.37;100398.59;6296559;28;20045;-74
2021/04/28 10:53:50;;;;;;;14.65;8.00;;;;;;;13.86;39.81;100393.38;6296146;28;20135;-74
2021/04/28 10:56:58;;;;;;;22.33;8.18;;;;;;;14.31;38.19;100391.81;6296039;28;20086;-73
2021/04/28 11:00:01;;;;;;;12.50;7.50;;;;;;;14.25;37.72;100384.31;6295657;28;20075;-74
2021/04/28 11:03:27;;;;;;;15.73;7.72;;;;;;;14.48;38.98;100379.97;6295261;28;20080;-74
2021/04/28 11:06:49;;;;;;;11.93;7.28;;;;;;;14.69;37.40;100380.16;6295314;28;20049;-74
2021/04/28 11:09:50;;;;;;;17.73;8.23;;;;;;;14.89;39.98;100374.16;6296309;28;20048;-74
2021/04/28 11:13:05;;;;;;;16.38;7.93;;;;;;;15.07;37.24;100353.38;6295752;28;20447;-74
2021/04/28 11:16:06;;;;;;;24.98;8.52;;;;;;;15.22;38.40;100357.47;6295565;28;20048;-74
2021/04/28 11:19:14;;;;;;;20.33;8.07;;;;;;;15.41;37.50;100354.19;6295811;28;20054;-75
2021/04/28 11:22:21;;;;;;;26.92;8.25;;;;;;;15.58;36.85;100357.28;6296146;28;20500;-74
2021/04/28 11:25:22;;;;;;;30.27;8.35;;;;;;;15.78;36.41;100345.13;6295642;28;20049;-74
2021/04/28 11:28:35;;;;;;;14.60;7.45;;;;;;;16.28;35.86;100353.38;6296039;28;20052;-75
2021/04/28 11:31:43;;;;;;;12.30;8.05;;;;;;;16.57;35.83;100350.91;6295789;28;20084;-74
2021/04/28 11:34:44;;;;;;;18.45;7.78;;;;;;;16.93;33.73;100338.97;6286504;28;20059;-75
2021/04/28 11:38:02;;;;;;;17.13;8.85;;;;;;;17.02;34.51;100335.53;6270417;28;20049;-75
2021/04/28 11:41:06;;;;;;;17.38;8.52;;;;;;;17.02;34.27;100332.03;6295032;28;20444;-74
2021/04/28 11:44:13;;;;;;;17.67;8.30;;;;;;;17.24;34.46;100332.69;6294758;28;20049;-77
2021/04/28 11:47:17;;;;;;;15.80;8.10;;;;;;;17.50;36.61;100326.88;6295255;28;20070;-76
2021/04/28 11:50:18;;;;;;;21.27;9.13;;;;;;;17.92;34.89;100326.69;6295323;28;20048;-75
2021/04/28 11:53:19;;;;;;;14.07;7.80;;;;;;;18.27;32.20;100319.97;6294567;28;20059;-76
2021/04/28 11:56:32;;;;;;;15.13;8.25;;;;;;;17.92;31.49;100316.88;6295398;28;20053;-76
2021/04/28 11:59:36;;;;;;;14.80;8.23;;;;;;;17.82;32.55;100315.22;6294486;28;20060;-76
2021/04/28 12:02:38;;;;;;;22.48;8.73;;;;;;;18.13;31.98;100318.59;6293479;28;20475;-77
2021/04/28 12:05:39;;;;;;;17.17;8.13;;;;;;;18.08;32.01;100310.19;6295722;28;20135;-78
2021/04/28 12:08:40;;;;;;;16.33;8.27;;;;;;;17.95;31.73;100298.00;6300603;28;20074;-76
2021/04/28 12:11:43;;;;;;;15.43;8.98;;;;;;;18.00;33.14;100303.75;6300450;28;20048;-76
2021/04/28 12:14:48;;;;;;;39.17;8.93;;;;;;;18.01;32.43;100301.91;6300097;28;20049;-75
2021/04/28 12:17:53;;;;;;;13.85;8.65;;;;;;;18.29;32.36;100299.38;6299384;28;20048;-77
2021/04/28 12:20:57;;;;;;;16.52;8.25;;;;;;;18.53;31.44;100291.78;6299773;28;20048;-76
2021/04/28 12:23:58;;;;;;;17.15;8.38;;;;;;;18.56;32.24;100286.16;6296477;28;20076;-77
2021/04/28 12:27:04;;;;;;;23.10;8.20;;;;;;;19.11;33.38;100294.22;6286898;28;20532;-77
2021/04/28 12:30:08;;;;;;;16.63;8.98;;;;;;;19.14;30.48;100290.44;6298758;28;20045;-76
2021/04/28 12:33:09;;;;;;;20.55;8.77;;;;;;;19.05;30.43;100281.50;6297827;28;20056;-76
2021/04/28 12:36:11;;;;;;;25.02;8.93;;;;;;;19.20;31.54;100284.50;6297676;28;20040;-76
2021/04/28 12:39:23;;;;;;;18.20;7.55;;;;;;;19.39;33.07;100283.56;6299131;28;20689;-76
2021/04/28 12:42:29;;;;;;;14.15;8.18;;;;;;;19.66;29.57;100282.69;6299522;28;20052;-76
2021/04/28 12:45:30;;;;;;;15.00;8.40;;;;;;;19.94;30.78;100278.13;6299509;28;20044;-76
2021/04/28 12:48:54;;;;;;;16.50;7.95;;;;;;;20.36;30.23;100275.63;6299113;28;20044;-76
2021/04/28 12:51:57;;;;;;;12.52;8.10;;;;;;;20.56;30.48;100270.09;6299441;28;20087;-76
2021/04/28 12:54:58;;;;;;;15.55;8.02;;;;;;;20.57;29.18;100261.09;6298745;28;20076;-76
2021/04/28 12:58:01;;;;;;;14.63;7.70;;;;;;;20.50;28.81;100266.22;6293802;28;20098;-77
2021/04/28 13:01:14;;;;;;;13.05;8.27;;;;;;;20.45;28.46;100265.84;6284606;28;20165;-76
2021/04/28 13:04:19;;;;;;;11.27;7.70;;;;;;;20.52;27.30;100253.53;6281072;28;20041;-76
2021/04/28 13:07:23;;;;;;;14.77;8.15;;;;;;;20.56;29.85;100246.91;6273551;28;20049;-75
2021/04/28 13:10:24;;;;;;;20.42;9.80;;;;;;;20.84;27.28;100249.38;6298364;28;20044;-76
2021/04/28 13:13:29;;;;;;;17.40;8.90;;;;;;;20.69;28.32;100241.97;6297790;28;20479;-77
2021/04/28 13:16:38;;;;;;;17.48;8.23;;;;;;;20.88;28.20;100240.03;6297999;28;20047;-79
2021/04/28 13:19:41;;;;;;;13.02;7.65;;;;;;;21.04;26.85;100242.78;6302171;28;20131;-77
2021/04/28 13:22:42;;;;;;;17.67;8.57;;;;;;;21.32;27.27;100238.06;6301650;28;20052;-76
2021/04/28 13:25:53;;;;;;;16.63;8.18;;;;;;;20.83;26.80;100229.84;6273457;28;20421;-77
2021/04/28 13:28:56;;;;;;;15.50;8.77;;;;;;;20.91;27.98;100229.88;6274819;28;20288;-77
2021/04/28 13:31:57;;;;;;;15.93;8.23;;;;;;;21.41;26.79;100233.56;6307535;28;20044;-76
2021/04/28 13:35:12;;;;;;;17.05;8.65;;;;;;;21.42;25.96;100227.19;6318378;28;20052;-78
2021/04/28 13:38:13;;;;;;;21.30;9.48;;;;;;;21.13;26.32;100219.59;6324013;28;20052;-77
2021/04/28 13:41:15;;;;;;;12.55;7.85;;;;;;;20.96;26.39;100219.53;6308485;28;20044;-78
2021/04/28 13:44:15;;;;;;;13.77;8.85;;;;;;;20.81;25.95;100217.66;6299773;28;20063;-77
2021/04/28 13:47:16;;;;;;;14.48;9.00;;;;;;;20.67;27.02;100214.59;6299023;28;20068;-77
2021/04/28 13:50:19;;;;;;;28.05;9.38;;;;;;;20.91;25.55;100208.50;6299865;28;20098;-77
2021/04/28 13:53:20;;;;;;;19.02;9.23;;;;;;;20.69;29.25;100206.41;6278087;22;20050;-78
2021/04/28 13:56:21;;;;;;;14.77;8.48;;;;;;;20.86;25.63;100208.16;6259089;28;20048;-78
2021/04/28 13:59:23;;;;;;;21.45;8.85;;;;;;;20.70;27.30;100208.91;6271442;28;20059;-77
2021/04/28 14:02:25;;;;;;;16.83;9.40;;;;;;;20.34;26.51;100213.53;6262075;28;20509;-77
2021/04/28 14:05:26;;;;;;;18.25;9.05;;;;;;;20.20;28.22;100198.94;6263457;28;20143;-76
2021/04/28 14:08:27;;;;;;;15.35;8.93;;;;;;;19.90;26.83;100194.09;6264260;28;20053;-78
2021/04/28 14:11:28;;;;;;;16.40;8.00;;;;;;;19.67;27.82;100188.41;6248803;28;20049;-78